Time;durP1;ratioP1;P1;durP2;ratioP2;P2;SDS_P1;SDS_P2;PMS_P1;PMS_P2;Temp;Humidity;BMP_temperature;BMP_pressure;BME280_temperature;BME280_humidity;BME280_pressure;Samples;Min_cycle;Max_cycle;Signal;HPM_P1;HPM_P2
2022/09/22 00:00:55;;;;;;;;;;;6.40;99.90;;;;;;5066055;28;19956;-69
2022/09/22 00:03:22;;;;;;;;;;;6.40;99.90;;;;;;5100424;22;19955;-70
2022/09/22 00:05:49;;;;;;;;;;;6.40;99.90;;;;;;5088199;28;19928;-69
2022/09/22 00:08:15;;;;;;;;;;;6.40;99.90;;;;;;5086080;28;19926;-70
2022/09/22 00:10:42;;;;;;;;;;;6.30;99.90;;;;;;5088547;28;19959;-69
2022/09/22 00:13:09;;;;;;;;;;;6.30;99.90;;;;;;5090815;28;19959;-70
2022/09/22 00:15:35;;;;;;;;;;;6.30;99.90;;;;;;5086075;28;19985;-70
2022/09/22 00:18:03;;;;;;;;;;;6.20;99.90;;;;;;5085931;28;19928;-70
2022/09/22 00:20:30;;;;;;;;;;;6.20;99.90;;;;;;5086225;28;19927;-71
2022/09/22 00:22:56;;;;;;;;;;;6.20;99.90;;;;;;5080070;28;20290;-70
2022/09/22 00:25:23;;;;;;;;;;;6.10;99.90;;;;;;5088722;28;19951;-70
2022/09/22 00:27:53;;;;;;;;;;;6.10;99.90;;;;;;5086210;28;20123;-70
2022/09/22 00:30:19;;;;;;;;;;;6.10;99.90;;;;;;5086236;28;19924;-70
2022/09/22 00:32:46;;;;;;;;;;;6.10;99.90;;;;;;5085909;28;19971;-71
2022/09/22 00:35:14;;;;;;;;;;;6.10;99.90;;;;;;5085511;28;19921;-70
2022/09/22 00:37:41;;;;;;;;;;;6.10;99.90;;;;;;5079261;28;20275;-70
2022/09/22 00:40:08;;;;;;;;;;;6.00;99.90;;;;;;5065947;28;19920;-70
2022/09/22 00:42:35;;;;;;;;;;;6.00;99.90;;;;;;5065541;28;19924;-69
2022/09/22 00:45:02;;;;;;;;;;;6.00;99.90;;;;;;5065509;28;19927;-70
2022/09/22 00:47:33;;;;;;;;;;;5.90;99.90;;;;;;5065752;28;19921;-70
2022/09/22 00:50:03;;;;;;;;;;;5.90;99.90;;;;;;5065596;28;19999;-69
2022/09/22 00:52:33;;;;;;;;;;;5.90;99.90;;;;;;5077787;28;19952;-70
2022/09/22 00:55:02;;;;;;;;;;;5.80;99.90;;;;;;5085295;28;19926;-70
2022/09/22 00:57:31;;;;;;;;;;;5.80;99.90;;;;;;5085079;28;19984;-69
2022/09/22 00:59:57;;;;;;;;;;;5.80;99.90;;;;;;5085339;28;20150;-70
2022/09/22 01:02:24;;;;;;;;;;;5.80;99.90;;;;;;5085295;28;19991;-69
2022/09/22 01:04:52;;;;;;;;;;;5.70;99.90;;;;;;5069492;28;19985;-70
2022/09/22 01:07:19;;;;;;;;;;;5.70;99.90;;;;;;5069637;28;19928;-69
2022/09/22 01:09:47;;;;;;;;;;;5.70;99.90;;;;;;5083468;28;19920;-70
2022/09/22 01:12:13;;;;;;;;;;;5.60;99.90;;;;;;5085211;28;19926;-70
2022/09/22 01:14:50;;;;;;;;;;;5.60;99.90;;;;;;5084847;28;19921;-70
2022/09/22 01:17:22;;;;;;;;;;;5.60;99.90;;;;;;5084835;28;20227;-69
2022/09/22 01:20:11;;;;;;;;;;;5.60;99.90;;;;;;5085130;28;19920;-69
2022/09/22 01:22:56;;;;;;;;;;;5.50;99.90;;;;;;5068897;28;19947;-70
2022/09/22 01:25:33;;;;;;;;;;;5.50;99.90;;;;;;5064584;28;19943;-70
2022/09/22 01:28:09;;;;;;;;;;;5.50;99.90;;;;;;5064664;28;19921;-70
2022/09/22 01:30:40;;;;;;;;;;;5.50;99.90;;;;;;5064684;28;20206;-69
2022/09/22 01:33:21;;;;;;;;;;;5.40;99.90;;;;;;5064727;28;19921;-70
2022/09/22 01:35:59;;;;;;;;;;;5.50;99.90;;;;;;5066417;28;20316;-70
2022/09/22 01:38:30;;;;;;;;;;;5.40;99.90;;;;;;5084467;28;19940;-70
2022/09/22 01:41:00;;;;;;;;;;;5.40;99.90;;;;;;5084653;28;19920;-70
2022/09/22 01:43:33;;;;;;;;;;;5.40;99.90;;;;;;5084584;28;19958;-70
2022/09/22 01:46:01;;;;;;;;;;;5.40;99.90;;;;;;5084243;28;20251;-69
2022/09/22 01:48:30;;;;;;;;;;;5.40;99.90;;;;;;5084411;28;19920;-70
2022/09/22 01:50:58;;;;;;;;;;;5.30;99.90;;;;;;5071256;28;20199;-70
2022/09/22 01:53:30;;;;;;;;;;;5.30;99.90;;;;;;5082656;28;20163;-70
2022/09/22 01:56:00;;;;;;;;;;;5.30;99.90;;;;;;5084349;28;19925;-69
2022/09/22 01:58:29;;;;;;;;;;;5.30;99.90;;;;;;5084352;28;19991;-70
2022/09/22 02:00:58;;;;;;;;;;;5.30;99.90;;;;;;5081023;28;19966;-69
2022/09/22 02:03:30;;;;;;;;;;;5.30;99.90;;;;;;5088183;28;19928;-71
2022/09/22 02:06:00;;;;;;;;;;;5.30;99.90;;;;;;5083700;28;20226;-69
2022/09/22 02:08:31;;;;;;;;;;;5.20;99.90;;;;;;5084348;28;19921;-70
2022/09/22 02:11:00;;;;;;;;;;;5.20;99.90;;;;;;5089363;28;19920;-69
2022/09/22 02:13:26;;;;;;;;;;;5.20;99.90;;;;;;5083227;28;20273;-70
2022/09/22 02:16:02;;;;;;;;;;;5.20;99.90;;;;;;5083482;28;19952;-70
2022/09/22 02:18:32;;;;;;;;;;;5.10;99.90;;;;;;5083362;28;19928;-69
2022/09/22 02:20:59;;;;;;;;;;;5.00;99.90;;;;;;5063862;28;19920;-70
2022/09/22 02:23:25;;;;;;;;;;;5.00;99.90;;;;;;5063731;28;19921;-70
2022/09/22 02:25:53;;;;;;;;;;;5.00;99.90;;;;;;5063506;28;19952;-70
2022/09/22 02:28:21;;;;;;;;;;;4.90;99.90;;;;;;5063389;28;19921;-70
2022/09/22 02:30:48;;;;;;;;;;;4.90;99.90;;;;;;5063581;28;19921;-70
2022/09/22 02:33:15;;;;;;;;;;;4.90;99.90;;;;;;5064106;28;19983;-69
2022/09/22 02:35:46;;;;;;;;;;;4.90;99.90;;;;;;5064420;28;20200;-69
2022/09/22 02:38:15;;;;;;;;;;;4.90;99.90;;;;;;5088120;28;20212;-69
2022/09/22 02:40:45;;;;;;;;;;;4.80;99.90;;;;;;5083519;28;19927;-70
2022/09/22 02:43:14;;;;;;;;;;;4.80;99.90;;;;;;5083828;28;19921;-69
2022/09/22 02:45:45;;;;;;;;;;;4.80;99.90;;;;;;5083395;28;19963;-69
2022/09/22 02:48:15;;;;;;;;;;;4.80;99.90;;;;;;5082649;28;19920;-69
2022/09/22 02:50:42;;;;;;;;;;;4.80;99.90;;;;;;5070927;28;19921;-69
2022/09/22 02:53:13;;;;;;;;;;;4.80;99.90;;;;;;5063190;28;19927;-69
2022/09/22 02:55:40;;;;;;;;;;;4.70;99.90;;;;;;5063244;28;19921;-70
2022/09/22 02:58:06;;;;;;;;;;;4.70;99.90;;;;;;5063357;28;19921;-69
2022/09/22 03:00:33;;;;;;;;;;;4.70;99.90;;;;;;5063372;28;19988;-69
2022/09/22 03:03:00;;;;;;;;;;;4.70;99.90;;;;;;5079276;28;19983;-69
2022/09/22 03:05:26;;;;;;;;;;;4.70;99.90;;;;;;5082942;28;19955;-70
2022/09/22 03:07:53;;;;;;;;;;;4.70;99.90;;;;;;5083064;28;20119;-69
2022/09/22 03:10:21;;;;;;;;;;;4.60;99.90;;;;;;5083136;28;19995;-69
2022/09/22 03:12:47;;;;;;;;;;;4.60;99.90;;;;;;5083213;28;19927;-70
2022/09/22 03:15:15;;;;;;;;;;;4.60;99.90;;;;;;5082826;28;19996;-70
2022/09/22 03:17:41;;;;;;;;;;;4.60;99.90;;;;;;5069907;28;19932;-70
2022/09/22 03:20:10;;;;;;;;;;;4.60;99.90;;;;;;5083102;28;19920;-69
2022/09/22 03:22:37;;;;;;;;;;;4.50;99.90;;;;;;5085642;28;19974;-70
2022/09/22 03:25:04;;;;;;;;;;;4.50;99.90;;;;;;5086783;28;19921;-69
2022/09/22 03:27:32;;;;;;;;;;;4.50;99.90;;;;;;5087417;28;19920;-70
2022/09/22 03:29:59;;;;;;;;;;;4.50;99.90;;;;;;5087017;28;19927;-69
2022/09/22 03:32:25;;;;;;;;;;;4.40;99.90;;;;;;5077879;28;19927;-70
2022/09/22 03:34:52;;;;;;;;;;;4.40;99.90;;;;;;5066669;28;19992;-70
2022/09/22 03:37:18;;;;;;;;;;;4.40;99.90;;;;;;5067041;28;19991;-69
2022/09/22 03:39:45;;;;;;;;;;;4.50;99.90;;;;;;5067009;28;19956;-71
2022/09/22 03:42:11;;;;;;;;;;;4.50;99.90;;;;;;5066556;28;19928;-69
2022/09/22 03:44:39;;;;;;;;;;;4.40;99.90;;;;;;5066638;28;19984;-70
2022/09/22 03:47:06;;;;;;;;;;;4.40;99.90;;;;;;5066609;28;20230;-70
2022/09/22 03:49:33;;;;;;;;;;;4.50;99.90;;;;;;5067707;28;19920;-70
2022/09/22 03:51:59;;;;;;;;;;;4.50;99.90;;;;;;5066396;28;20263;-70
2022/09/22 03:54:26;;;;;;;;;;;4.50;99.90;;;;;;5066455;28;19927;-69
2022/09/22 03:56:53;;;;;;;;;;;4.40;99.90;;;;;;5066348;28;19927;-70
2022/09/22 03:59:19;;;;;;;;;;;4.40;99.90;;;;;;5066472;28;20237;-70
2022/09/22 04:01:47;;;;;;;;;;;4.40;99.90;;;;;;5066266;28;19927;-69
2022/09/22 04:04:14;;;;;;;;;;;4.30;99.90;;;;;;5079675;28;20208;-70
2022/09/22 04:06:40;;;;;;;;;;;4.30;99.90;;;;;;5086180;28;19921;-70
2022/09/22 04:09:07;;;;;;;;;;;4.30;99.90;;;;;;5086166;28;20245;-69
2022/09/22 04:11:35;;;;;;;;;;;4.20;99.90;;;;;;5077086;28;19979;-70
2022/09/22 04:14:02;;;;;;;;;;;4.20;99.90;;;;;;5087461;28;19920;-69
2022/09/22 04:16:30;;;;;;;;;;;4.20;99.90;;;;;;5081323;28;19921;-70
2022/09/22 04:18:58;;;;;;;;;;;4.20;99.90;;;;;;5086399;28;20243;-69
2022/09/22 04:21:25;;;;;;;;;;;4.10;99.90;;;;;;5084778;28;19920;-70
2022/09/22 04:23:51;;;;;;;;;;;4.20;99.90;;;;;;5085522;28;19921;-70
2022/09/22 04:26:18;;;;;;;;;;;4.10;99.90;;;;;;5075880;28;19980;-69
2022/09/22 04:28:45;;;;;;;;;;;4.10;99.90;;;;;;5066043;28;19920;-70
2022/09/22 04:31:11;;;;;;;;;;;4.10;99.90;;;;;;5094839;28;19928;-69
2022/09/22 04:33:38;;;;;;;;;;;4.10;99.90;;;;;;5092096;28;19952;-69
2022/09/22 04:36:06;;;;;;;;;;;4.10;99.90;;;;;;5096935;28;19983;-69
2022/09/22 04:38:33;;;;;;;;;;;4.10;99.90;;;;;;5089022;28;19921;-70
2022/09/22 04:41:00;;;;;;;;;;;4.10;99.90;;;;;;5090928;28;19926;-69
2022/09/22 04:43:26;;;;;;;;;;;4.00;99.90;;;;;;5101390;28;20154;-69
2022/09/22 04:45:53;;;;;;;;;;;4.10;99.90;;;;;;5101806;28;19983;-69
2022/09/22 04:48:20;;;;;;;;;;;4.00;99.90;;;;;;5106327;28;19919;-68
2022/09/22 04:50:46;;;;;;;;;;;4.00;99.90;;;;;;5099342;28;19979;-69
2022/09/22 04:53:14;;;;;;;;;;;4.00;99.90;;;;;;5086073;28;19979;-69
2022/09/22 04:55:41;;;;;;;;;;;4.00;99.90;;;;;;5085787;28;20115;-69
2022/09/22 04:58:09;;;;;;;;;;;3.90;99.90;;;;;;5085852;28;20082;-70
2022/09/22 05:00:36;;;;;;;;;;;3.90;99.90;;;;;;5085773;28;19984;-70
2022/09/22 05:03:07;;;;;;;;;;;3.90;99.90;;;;;;5105503;28;20154;-69
2022/09/22 05:05:33;;;;;;;;;;;3.90;99.90;;;;;;5102898;28;19925;-70
2022/09/22 05:08:00;;;;;;;;;;;3.90;99.90;;;;;;5070960;28;20133;-69
2022/09/22 05:10:31;;;;;;;;;;;3.90;99.90;;;;;;5065652;28;19927;-69
2022/09/22 05:12:57;;;;;;;;;;;3.90;99.90;;;;;;5065266;28;19920;-68
2022/09/22 05:15:24;;;;;;;;;;;3.90;99.90;;;;;;5065081;28;19920;-68
2022/09/22 05:17:52;;;;;;;;;;;3.80;99.90;;;;;;5069610;28;19927;-71
2022/09/22 05:20:19;;;;;;;;;;;3.80;99.90;;;;;;5090249;28;19920;-68
2022/09/22 05:22:46;;;;;;;;;;;3.80;99.90;;;;;;5102214;28;19988;-68
2022/09/22 05:25:14;;;;;;;;;;;3.80;99.90;;;;;;5084590;28;19921;-70
2022/09/22 05:27:44;;;;;;;;;;;3.90;99.90;;;;;;5084869;28;19995;-70
2022/09/22 05:30:11;;;;;;;;;;;3.90;99.90;;;;;;5084873;28;19921;-70
2022/09/22 05:32:38;;;;;;;;;;;3.80;99.90;;;;;;5084699;28;20080;-71
2022/09/22 05:35:05;;;;;;;;;;;3.90;99.90;;;;;;5083986;28;19987;-70
2022/09/22 05:37:31;;;;;;;;;;;3.80;99.90;;;;;;5084738;28;19927;-70
2022/09/22 05:39:58;;;;;;;;;;;3.90;99.90;;;;;;5080364;28;19920;-69
2022/09/22 05:42:24;;;;;;;;;;;3.80;99.90;;;;;;5064978;28;20007;-69
2022/09/22 05:44:52;;;;;;;;;;;3.80;99.90;;;;;;5063465;28;19952;-69
2022/09/22 05:47:19;;;;;;;;;;;3.90;99.90;;;;;;5065015;28;19920;-70
2022/09/22 05:49:45;;;;;;;;;;;3.90;99.90;;;;;;5064442;28;19932;-70
2022/09/22 05:52:12;;;;;;;;;;;3.90;99.90;;;;;;5066877;28;19987;-70
2022/09/22 05:54:39;;;;;;;;;;;4.00;99.90;;;;;;5083948;28;19920;-70
2022/09/22 05:57:05;;;;;;;;;;;4.00;99.90;;;;;;5084585;28;19943;-70
2022/09/22 05:59:32;;;;;;;;;;;4.00;99.90;;;;;;5067929;28;19953;-69
2022/09/22 06:02:00;;;;;;;;;;;4.00;99.90;;;;;;5064234;28;19927;-70
2022/09/22 06:04:26;;;;;;;;;;;4.00;99.90;;;;;;5094405;22;19955;-69
2022/09/22 06:06:53;;;;;;;;;;;4.00;99.90;;;;;;5083782;28;19983;-68
2022/09/22 06:09:20;;;;;;;;;;;4.10;99.90;;;;;;5084003;28;19991;-69
2022/09/22 06:11:46;;;;;;;;;;;4.10;99.90;;;;;;5083776;28;19999;-70
2022/09/22 06:14:13;;;;;;;;;;;4.10;99.90;;;;;;5083161;28;20286;-69
2022/09/22 06:16:39;;;;;;;;;;;4.10;99.90;;;;;;5083802;28;19920;-69
2022/09/22 06:19:08;;;;;;;;;;;4.20;99.90;;;;;;5083900;28;19952;-69
2022/09/22 06:21:34;;;;;;;;;;;4.20;99.90;;;;;;5084224;28;19925;-70
2022/09/22 06:24:01;;;;;;;;;;;4.30;99.90;;;;;;5083964;28;19924;-70
2022/09/22 06:26:28;;;;;;;;;;;4.30;99.90;;;;;;5078114;28;19920;-70
2022/09/22 06:28:54;;;;;;;;;;;4.40;99.90;;;;;;5063558;28;20222;-70
2022/09/22 06:31:21;;;;;;;;;;;4.40;99.90;;;;;;5063728;28;19921;-72
2022/09/22 06:33:48;;;;;;;;;;;4.50;99.90;;;;;;5063568;28;20174;-70
2022/09/22 06:36:22;;;;;;;;;;;4.40;99.90;;;;;;5063199;28;19927;-71
2022/09/22 06:38:49;;;;;;;;;;;4.40;99.90;;;;;;5063741;28;20123;-70
2022/09/22 06:41:16;;;;;;;;;;;4.40;99.90;;;;;;5075479;28;19946;-71
2022/09/22 06:43:46;;;;;;;;;;;4.40;99.90;;;;;;5083521;28;19991;-71
2022/09/22 06:46:13;;;;;;;;;;;4.50;99.90;;;;;;5083666;28;19921;-69
2022/09/22 06:48:39;;;;;;;;;;;4.60;99.90;;;;;;5083323;28;19992;-69
2022/09/22 06:51:06;;;;;;;;;;;4.60;99.90;;;;;;5083338;28;19928;-70
2022/09/22 06:53:34;;;;;;;;;;;4.70;99.90;;;;;;5083542;28;19921;-69
2022/09/22 06:56:05;;;;;;;;;;;4.80;99.90;;;;;;5077699;28;19986;-69
2022/09/22 06:58:31;;;;;;;;;;;4.90;99.90;;;;;;5083076;28;19928;-69
2022/09/22 07:01:02;;;;;;;;;;;5.00;99.90;;;;;;5083281;28;19921;-72
2022/09/22 07:03:29;;;;;;;;;;;5.10;99.90;;;;;;5083079;28;19924;-70
2022/09/22 07:05:57;;;;;;;;;;;5.20;99.90;;;;;;5083111;28;19928;-70
2022/09/22 07:08:24;;;;;;;;;;;5.20;99.90;;;;;;5083336;28;19956;-70
2022/09/22 07:10:56;;;;;;;;;;;5.30;99.90;;;;;;5068507;28;19927;-69
2022/09/22 07:13:23;;;;;;;;;;;5.40;99.90;;;;;;5063079;28;19921;-69
2022/09/22 07:15:50;;;;;;;;;;;5.50;99.90;;;;;;5062724;28;20123;-70
2022/09/22 07:18:17;;;;;;;;;;;5.50;99.90;;;;;;5063191;28;19988;-72
2022/09/22 07:20:44;;;;;;;;;;;5.70;99.90;;;;;;5063077;28;20116;-71
2022/09/22 07:23:15;;;;;;;;;;;5.80;99.90;;;;;;5062918;28;20204;-72
2022/09/22 07:25:41;;;;;;;;;;;5.90;99.90;;;;;;5078134;28;19921;-71
2022/09/22 07:28:11;;;;;;;;;;;6.00;99.90;;;;;;5082948;28;19983;-72
2022/09/22 07:30:39;;;;;;;;;;;6.10;99.90;;;;;;5083052;28;19939;-72
2022/09/22 07:33:05;;;;;;;;;;;6.20;99.90;;;;;;5082832;28;19983;-71
2022/09/22 07:35:34;;;;;;;;;;;6.40;99.90;;;;;;5082948;28;20204;-72
2022/09/22 07:38:02;;;;;;;;;;;6.50;99.90;;;;;;5080762;28;20211;-72
2022/09/22 07:40:28;;;;;;;;;;;6.70;99.90;;;;;;5062807;28;20216;-72
2022/09/22 07:42:55;;;;;;;;;;;6.90;99.90;;;;;;5062731;28;19983;-71
2022/09/22 07:45:23;;;;;;;;;;;7.10;99.90;;;;;;5063715;28;20263;-71
2022/09/22 07:50:34;;;;;;;;;;;7.30;99.90;;;;;;5075679;28;20025;-72
2022/09/22 07:53:00;;;;;;;;;;;7.40;99.90;;;;;;5082725;28;19988;-71
2022/09/22 07:55:27;;;;;;;;;;;7.60;99.90;;;;;;5062840;28;19927;-72
2022/09/22 07:57:54;;;;;;;;;;;7.70;99.90;;;;;;5062883;28;19948;-72
2022/09/22 08:00:23;;;;;;;;;;;7.80;99.90;;;;;;5062888;28;19921;-72
2022/09/22 08:02:54;;;;;;;;;;;8.00;99.90;;;;;;5076026;28;19920;-71
2022/09/22 08:05:21;;;;;;;;;;;8.10;99.90;;;;;;5082640;28;19983;-71
2022/09/22 08:07:48;;;;;;;;;;;8.30;99.90;;;;;;5083856;28;19926;-71
2022/09/22 08:10:15;;;;;;;;;;;8.40;99.90;;;;;;5086251;28;19987;-72
2022/09/22 08:12:42;;;;;;;;;;;8.50;99.90;;;;;;5086362;28;19927;-72
2022/09/22 08:15:10;;;;;;;;;;;8.60;99.90;;;;;;5085709;28;20215;-71
2022/09/22 08:17:38;;;;;;;;;;;8.80;99.90;;;;;;5066412;28;19920;-72
2022/09/22 08:20:06;;;;;;;;;;;8.90;99.90;;;;;;5067208;28;19920;-72
2022/09/22 08:22:33;;;;;;;;;;;9.00;99.90;;;;;;5076546;28;19950;-71
2022/09/22 08:24:59;;;;;;;;;;;9.10;99.90;;;;;;5066047;28;19959;-72
2022/09/22 08:27:26;;;;;;;;;;;9.20;99.90;;;;;;5066190;28;19927;-72
2022/09/22 08:29:53;;;;;;;;;;;9.30;99.90;;;;;;5066016;28;20025;-72
2022/09/22 08:32:20;;;;;;;;;;;9.40;99.90;;;;;;5066133;28;19943;-72
2022/09/22 08:34:50;;;;;;;;;;;9.40;99.90;;;;;;5065598;28;20242;-72
2022/09/22 08:37:17;;;;;;;;;;;9.50;99.90;;;;;;5073779;28;19966;-72
2022/09/22 08:39:43;;;;;;;;;;;9.70;99.90;;;;;;5085776;28;20267;-71
2022/09/22 08:42:13;;;;;;;;;;;9.80;99.90;;;;;;5085931;28;19983;-71
2022/09/22 08:44:41;;;;;;;;;;;9.80;99.90;;;;;;5085583;28;19952;-71
2022/09/22 08:47:11;;;;;;;;;;;9.90;99.90;;;;;;5086138;28;19983;-72
2022/09/22 08:52:27;;;;;;;;;;;10.20;99.90;;;;;;5071846;28;19927;-71
2022/09/22 08:54:58;;;;;;;;;;;10.30;99.90;;;;;;5065244;28;19921;-73
2022/09/22 08:57:31;;;;;;;;;;;10.40;99.90;;;;;;5065365;28;19927;-72
2022/09/22 09:00:02;;;;;;;;;;;10.60;99.90;;;;;;5065440;28;19927;-71
2022/09/22 09:02:40;;;;;;;;;;;10.70;99.90;;;;;;5065658;28;20100;-72
2022/09/22 09:05:23;;;;;;;;;;;10.90;99.90;;;;;;5082782;28;20249;-72
2022/09/22 09:07:57;;;;;;;;;;;11.00;99.90;;;;;;5105553;28;19959;-72
2022/09/22 09:10:31;;;;;;;;;;;11.20;99.90;;;;;;5086406;28;19966;-72
2022/09/22 09:13:03;;;;;;;;;;;11.20;99.90;;;;;;5085258;28;19984;-71
2022/09/22 09:15:36;;;;;;;;;;;11.40;99.90;;;;;;5084803;28;20162;-71
2022/09/22 09:18:05;;;;;;;;;;;11.50;99.90;;;;;;5085375;28;19924;-72
2022/09/22 09:20:37;;;;;;;;;;;11.60;99.90;;;;;;5083081;28;20088;-72
2022/09/22 09:23:10;;;;;;;;;;;11.60;99.90;;;;;;5084867;28;19984;-72
2022/09/22 09:25:38;;;;;;;;;;;11.70;99.90;;;;;;5084684;28;19991;-72
2022/09/22 09:28:06;;;;;;;;;;;11.80;99.90;;;;;;5071244;28;19927;-72
2022/09/22 09:30:38;;;;;;;;;;;11.80;99.90;;;;;;5078673;28;19956;-71
2022/09/22 09:33:10;;;;;;;;;;;11.90;99.90;;;;;;5064716;28;19927;-69
2022/09/22 09:35:42;;;;;;;;;;;12.10;99.90;;;;;;5064800;28;19920;-72
2022/09/22 09:38:13;;;;;;;;;;;12.20;99.90;;;;;;5064815;28;19921;-72
2022/09/22 09:40:40;;;;;;;;;;;12.30;99.90;;;;;;5064759;28;19987;-72
2022/09/22 09:43:07;;;;;;;;;;;12.40;99.90;;;;;;5066513;28;19921;-70
2022/09/22 09:45:39;;;;;;;;;;;12.50;99.90;;;;;;5084220;28;19987;-72
2022/09/22 09:48:11;;;;;;;;;;;12.60;99.90;;;;;;5084427;28;19920;-72
2022/09/22 09:50:38;;;;;;;;;;;12.70;99.90;;;;;;5064675;28;19921;-73
2022/09/22 09:53:05;;;;;;;;;;;12.80;99.90;;;;;;5063786;28;19943;-70
2022/09/22 09:55:34;;;;;;;;;;;12.80;99.90;;;;;;5062581;28;19921;-70
2022/09/22 09:58:02;;;;;;;;;;;12.90;99.90;;;;;;5063266;28;19921;-70
2022/09/22 10:00:30;;;;;;;;;;;13.00;99.90;;;;;;5064170;28;19984;-71
2022/09/22 10:03:03;;;;;;;;;;;13.10;99.90;;;;;;5063488;28;20146;-71
2022/09/22 10:05:31;;;;;;;;;;;13.20;99.90;;;;;;5077095;28;19927;-69
2022/09/22 10:08:00;;;;;;;;;;;13.30;99.90;;;;;;5083672;28;19956;-71
2022/09/22 10:10:35;;;;;;;;;;;13.40;99.90;;;;;;5084622;28;19921;-71
2022/09/22 10:13:24;;;;;;;;;;;13.40;99.90;;;;;;5083956;28;19921;-71
2022/09/22 10:16:21;;;;;;;;;;;13.50;99.90;;;;;;5084062;28;20096;-71
2022/09/22 10:18:50;;;;;;;;;;;13.60;99.90;;;;;;5009572;28;20407;-71
2022/09/22 10:21:18;;;;;;;;;;;13.80;99.90;;;;;;5050083;28;19921;-70
2022/09/22 10:23:45;;;;;;;;;;;13.90;99.90;;;;;;5081367;28;20169;-71
2022/09/22 10:26:20;;;;;;;;;;;13.90;99.90;;;;;;5084272;28;20202;-70
2022/09/22 10:29:06;;;;;;;;;;;14.00;99.90;;;;;;5084794;28;20125;-70
2022/09/22 10:31:34;;;;;;;;;;;14.00;99.90;;;;;;5083378;28;19983;-70
2022/09/22 10:34:00;;;;;;;;;;;14.10;99.90;;;;;;5083415;28;20151;-70
2022/09/22 10:36:28;;;;;;;;;;;14.30;99.90;;;;;;5083652;28;19952;-71
2022/09/22 10:38:55;;;;;;;;;;;14.50;99.90;;;;;;5083661;28;19952;-70
2022/09/22 10:41:26;;;;;;;;;;;14.60;99.90;;;;;;5083626;28;19958;-71
2022/09/22 10:43:54;;;;;;;;;;;14.70;99.90;;;;;;5083527;28;20113;-71
2022/09/22 10:46:36;;;;;;;;;;;14.80;99.90;;;;;;5081766;28;20149;-70
2022/09/22 10:49:06;;;;;;;;;;;14.90;99.90;;;;;;5074152;28;20111;-71
2022/09/22 10:51:39;;;;;;;;;;;15.00;99.90;;;;;;5080553;28;19920;-71
2022/09/22 10:54:17;;;;;;;;;;;15.10;99.90;;;;;;5081545;28;20207;-71
2022/09/22 10:56:46;;;;;;;;;;;15.20;99.90;;;;;;5065406;28;19983;-71
2022/09/22 10:59:18;;;;;;;;;;;15.30;99.90;;;;;;5062102;28;19927;-71
2022/09/22 11:01:55;;;;;;;;;;;15.40;99.90;;;;;;5076758;28;19952;-71
2022/09/22 11:04:40;;;;;;;;;;;15.40;99.90;;;;;;5081517;28;19920;-71
2022/09/22 11:13:10;;;;;;;;;;;15.10;99.90;;;;;;5082704;28;19940;-70
2022/09/22 11:15:42;;;;;;;;;;;15.10;99.90;;;;;;5069972;28;19953;-71
2022/09/22 11:18:33;;;;;;;;;;;15.10;99.90;;;;;;5063180;28;19980;-71
2022/09/22 11:21:04;;;;;;;;;;;15.00;99.90;;;;;;5057189;28;19921;-71
2022/09/22 11:23:55;;;;;;;;;;;14.90;99.90;;;;;;5063004;28;19924;-71
2022/09/22 11:26:37;;;;;;;;;;;15.10;99.90;;;;;;5059115;28;19921;-71
2022/09/22 11:29:19;;;;;;;;;;;15.40;99.90;;;;;;5069875;28;20171;-71
2022/09/22 11:31:48;;;;;;;;;;;15.70;99.90;;;;;;5083025;28;19944;-71
2022/09/22 11:34:36;;;;;;;;;;;16.00;99.90;;;;;;5082530;28;19921;-71
2022/09/22 11:39:54;;;;;;;;;;;16.20;99.90;;;;;;5082846;28;19917;-71
2022/09/22 11:42:24;;;;;;;;;;;16.30;99.90;;;;;;5083216;28;19983;-71
2022/09/22 11:44:57;;;;;;;;;;;16.50;99.90;;;;;;5069194;28;20149;-71
2022/09/22 11:47:41;;;;;;;;;;;16.60;99.90;;;;;;5066852;28;19966;-71
2022/09/22 11:50:26;;;;;;;;;;;16.70;99.90;;;;;;5066838;28;19928;-71
2022/09/22 11:53:08;;;;;;;;;;;16.70;99.90;;;;;;5066371;28;19921;-71
2022/09/22 11:55:36;;;;;;;;;;;16.80;99.90;;;;;;5066423;28;19996;-71
2022/09/22 11:58:07;;;;;;;;;;;17.00;99.90;;;;;;5084941;28;20166;-71
2022/09/22 12:00:37;;;;;;;;;;;17.10;99.90;;;;;;5086523;28;19924;-71
2022/09/22 12:03:08;;;;;;;;;;;17.20;99.90;;;;;;5086723;28;19913;-71
2022/09/22 12:05:37;;;;;;;;;;;17.30;99.90;;;;;;5086117;28;20365;-71
2022/09/22 12:08:06;;;;;;;;;;;17.40;99.90;;;;;;5085146;28;19920;-71
2022/09/22 12:10:34;;;;;;;;;;;17.50;99.90;;;;;;5080065;28;19995;-70
2022/09/22 12:13:01;;;;;;;;;;;17.60;99.90;;;;;;5066268;28;19921;-71
2022/09/22 12:15:31;;;;;;;;;;;17.70;99.90;;;;;;5065867;28;20115;-71
2022/09/22 12:18:01;;;;;;;;;;;17.80;99.90;;;;;;5065981;28;19920;-71
2022/09/22 12:20:33;;;;;;;;;;;17.90;99.90;;;;;;5066299;28;19920;-71
2022/09/22 12:23:14;;;;;;;;;;;17.90;99.90;;;;;;5066014;28;19928;-71
2022/09/22 12:25:45;;;;;;;;;;;18.00;99.90;;;;;;5074424;28;19921;-71
2022/09/22 12:28:15;;;;;;;;;;;18.00;99.90;;;;;;5065990;28;19920;-71
2022/09/22 12:30:51;;;;;;;;;;;18.20;99.90;;;;;;5066092;28;19921;-70
2022/09/22 12:33:19;;;;;;;;;;;18.30;99.90;;;;;;5066010;28;20213;-71
2022/09/22 12:35:51;;;;;;;;;;;18.40;99.90;;;;;;5065485;28;20213;-70
2022/09/22 12:38:20;;;;;;;;;;;18.40;99.90;;;;;;5076219;28;19921;-71
2022/09/22 12:40:47;;;;;;;;;;;18.10;99.90;;;;;;5085673;28;19987;-71
2022/09/22 12:43:15;;;;;;;;;;;18.10;99.90;;;;;;5085986;28;19920;-71
2022/09/22 12:45:42;;;;;;;;;;;18.30;99.90;;;;;;5074977;28;19952;-71
2022/09/22 12:48:10;;;;;;;;;;;18.40;99.90;;;;;;5065792;28;20093;-71
2022/09/22 12:50:42;;;;;;;;;;;18.20;99.90;;;;;;5065739;28;19983;-71
2022/09/22 12:53:10;;;;;;;;;;;18.10;99.90;;;;;;5064945;28;19920;-72
2022/09/22 12:55:39;;;;;;;;;;;17.90;99.90;;;;;;5065135;28;19932;-71
2022/09/22 12:58:24;;;;;;;;;;;17.60;99.90;;;;;;5065683;28;20131;-72
2022/09/22 13:00:52;;;;;;;;;;;17.30;99.90;;;;;;5071914;28;19980;-72
2022/09/22 13:03:37;;;;;;;;;;;17.00;99.90;;;;;;5085171;28;20200;-71
2022/09/22 13:06:25;;;;;;;;;;;16.80;99.90;;;;;;5084963;28;20299;-71
2022/09/22 13:09:08;;;;;;;;;;;16.70;99.90;;;;;;5084621;28;19920;-71
2022/09/22 13:11:50;;;;;;;;;;;16.90;99.90;;;;;;5085287;28;19921;-71
2022/09/22 13:14:31;;;;;;;;;;;17.30;99.90;;;;;;5060331;28;19967;-71
2022/09/22 13:16:58;;;;;;;;;;;17.80;99.90;;;;;;5064874;28;20236;-71
2022/09/22 13:19:25;;;;;;;;;;;18.20;99.90;;;;;;5065144;28;19956;-70
2022/09/22 13:21:52;;;;;;;;;;;18.50;99.90;;;;;;5065090;28;20183;-71
2022/09/22 13:24:21;;;;;;;;;;;18.70;99.90;;;;;;5064888;28;19921;-71
2022/09/22 13:26:47;;;;;;;;;;;18.60;99.90;;;;;;5064333;28;19920;-71
2022/09/22 13:29:15;;;;;;;;;;;18.50;99.90;;;;;;5068566;28;19956;-71
2022/09/22 13:31:42;;;;;;;;;;;18.30;99.90;;;;;;5084827;28;20153;-71
2022/09/22 13:34:19;;;;;;;;;;;17.90;99.90;;;;;;5084070;28;20143;-71
2022/09/22 13:36:47;;;;;;;;;;;17.70;99.90;;;;;;5084489;28;19988;-71
2022/09/22 13:39:16;;;;;;;;;;;17.50;99.90;;;;;;5084735;28;19956;-71
2022/09/22 13:41:46;;;;;;;;;;;17.60;99.90;;;;;;5084606;28;20215;-72
2022/09/22 13:44:13;;;;;;;;;;;17.60;99.90;;;;;;5071548;28;19984;-72
2022/09/22 13:46:41;;;;;;;;;;;17.70;99.90;;;;;;5064188;28;19921;-72
2022/09/22 13:49:11;;;;;;;;;;;17.70;99.90;;;;;;5066183;28;19980;-71
2022/09/22 13:51:37;;;;;;;;;;;17.40;99.90;;;;;;5074357;28;19995;-72
2022/09/22 13:54:05;;;;;;;;;;;17.30;99.90;;;;;;5077407;28;19924;-71
2022/09/22 13:56:34;;;;;;;;;;;17.10;99.90;;;;;;5075825;28;20171;-72
2022/09/22 13:59:02;;;;;;;;;;;16.90;99.90;;;;;;5076637;28;19966;-72
2022/09/22 14:01:29;;;;;;;;;;;16.80;99.90;;;;;;5075084;28;19954;-72
2022/09/22 14:03:56;;;;;;;;;;;16.80;99.90;;;;;;5070034;28;19992;-72
2022/09/22 14:06:24;;;;;;;;;;;16.80;99.90;;;;;;5069038;28;19924;-72
2022/09/22 14:08:51;;;;;;;;;;;17.10;99.90;;;;;;5075883;28;19921;-71
2022/09/22 14:11:19;;;;;;;;;;;17.50;99.90;;;;;;5073297;28;19927;-72
2022/09/22 14:13:57;;;;;;;;;;;17.90;99.90;;;;;;5074437;28;19942;-72
2022/09/22 14:16:26;;;;;;;;;;;18.20;99.90;;;;;;5072213;28;19980;-71
2022/09/22 14:18:57;;;;;;;;;;;18.50;99.90;;;;;;5072498;28;20189;-72
2022/09/22 14:21:24;;;;;;;;;;;18.70;99.90;;;;;;5075538;28;19943;-72
2022/09/22 14:23:51;;;;;;;;;;;18.90;99.90;;;;;;5075580;28;19988;-72
2022/09/22 14:26:20;;;;;;;;;;;19.00;99.90;;;;;;5069241;28;19987;-73
2022/09/22 14:28:46;;;;;;;;;;;19.00;99.90;;;;;;5063710;28;19928;-72
2022/09/22 14:31:16;;;;;;;;;;;19.00;99.90;;;;;;5063291;28;20170;-72
2022/09/22 14:33:44;;;;;;;;;;;19.00;99.90;;;;;;5066780;28;19920;-73
2022/09/22 14:36:17;;;;;;;;;;;19.00;99.90;;;;;;5070817;28;20134;-72
2022/09/22 14:38:44;;;;;;;;;;;19.10;99.90;;;;;;5076247;28;19991;-73
2022/09/22 14:41:20;;;;;;;;;;;19.20;99.90;;;;;;5073280;28;19920;-72
2022/09/22 14:43:46;;;;;;;;;;;19.40;99.90;;;;;;5071059;28;19958;-72
2022/09/22 14:46:22;;;;;;;;;;;19.60;99.90;;;;;;5073430;28;19963;-71
2022/09/22 14:48:48;;;;;;;;;;;19.60;99.90;;;;;;5076539;28;19920;-72
2022/09/22 14:51:19;;;;;;;;;;;19.70;99.90;;;;;;5074944;28;19928;-72